createdAt,value
2019-02-22T00:00:29.513Z,103672.15
2019-02-22T00:01:40.703Z,103674.88
2019-02-22T00:02:45.110Z,103669.61
2019-02-22T00:03:49.410Z,103675.86
2019-02-22T00:04:53.704Z,103671.55
2019-02-22T00:05:58.083Z,103672.49
2019-02-22T00:07:02.389Z,103677.88
2019-02-22T00:08:06.706Z,103673.97
2019-02-22T00:09:11.148Z,103682.38
2019-02-22T00:10:15.521Z,103686.05
2019-02-22T00:11:19.756Z,103686.12
2019-02-22T00:12:24.088Z,103682.68
2019-02-22T00:13:28.453Z,103680.95
2019-02-22T00:14:32.660Z,103688.11
2019-02-22T00:15:36.959Z,103690.77
2019-02-22T00:16:41.265Z,103695.30
2019-02-22T00:17:45.604Z,103696.23
2019-02-22T00:18:49.898Z,103692.78
2019-02-22T00:19:54.192Z,103700.36
2019-02-22T00:20:58.520Z,103700.83
2019-02-22T00:22:02.730Z,103702.20
2019-02-22T00:23:07.053Z,103703.95
2019-02-22T00:24:11.342Z,103705.33
2019-02-22T00:25:15.656Z,103704.53
2019-02-22T00:26:19.859Z,103710.31
2019-02-22T00:27:24.153Z,103711.25
2019-02-22T00:28:28.671Z,103720.16
2019-02-22T00:29:32.958Z,103715.78
2019-02-22T00:30:37.277Z,103718.04
2019-02-22T00:31:41.564Z,103721.59
2019-02-22T00:32:45.805Z,103723.86
2019-02-22T00:33:50.154Z,103715.49
2019-02-22T00:34:54.606Z,103718.62
2019-02-22T00:35:58.822Z,103717.36
2019-02-22T00:37:03.130Z,103708.60
2019-02-22T00:38:07.549Z,103716.57
2019-02-22T00:39:11.798Z,103713.16
2019-02-22T00:40:16.162Z,103720.73
2019-02-22T00:41:20.384Z,103720.81
2019-02-22T00:42:24.752Z,103722.14
2019-02-22T00:43:29.021Z,103727.52
2019-02-22T00:44:33.444Z,103725.80
2019-02-22T00:45:37.797Z,103725.41
2019-02-22T00:46:42.022Z,103727.23
2019-02-22T00:47:46.226Z,103736.13
2019-02-22T00:48:50.503Z,103736.20
2019-02-22T00:49:54.875Z,103736.20
2019-02-22T00:50:59.135Z,103737.14
2019-02-22T00:52:03.379Z,103736.34
2019-02-22T00:53:07.773Z,103741.27
2019-02-22T00:54:12.012Z,103736.85
2019-02-22T00:55:16.386Z,103739.50
2019-02-22T00:56:20.682Z,103741.77
2019-02-22T00:57:24.959Z,103737.39
2019-02-22T00:58:29.399Z,103745.89
2019-02-22T00:59:33.730Z,103741.51
2019-02-22T01:00:38.184Z,103747.75
2019-02-22T01:01:42.528Z,103747.36
2019-02-22T01:02:46.774Z,103751.34
2019-02-22T01:03:51.146Z,103747.00
2019-02-22T01:04:55.402Z,103748.39
2019-02-22T01:05:59.766Z,103748.00
2019-02-22T01:07:04.142Z,103752.45
2019-02-22T01:08:08.661Z,103744.62
2019-02-22T01:09:12.887Z,103752.16
2019-02-22T01:10:17.250Z,103756.20
2019-02-22T01:11:21.669Z,103758.86
2019-02-22T01:12:25.905Z,103757.67
2019-02-22T01:13:30.227Z,103763.91
2019-02-22T01:14:34.632Z,103762.69
2019-02-22T01:15:38.845Z,103761.75
2019-02-22T01:16:43.203Z,103762.69
2019-02-22T01:17:47.546Z,103772.05
2019-02-22T01:18:51.800Z,103770.78
2019-02-22T01:19:56.186Z,103773.97
2019-02-22T01:21:00.482Z,103779.28
2019-02-22T01:22:04.846Z,103781.54
2019-02-22T01:23:09.215Z,103779.81
2019-02-22T01:24:13.524Z,103785.16
2019-02-22T01:25:17.838Z,103784.83
2019-02-22T01:26:22.140Z,103787.95
2019-02-22T01:27:26.481Z,103784.89
2019-02-22T01:28:30.867Z,103787.61
2019-02-22T01:29:35.366Z,103784.56
2019-02-22T01:30:39.697Z,103782.80
2019-02-22T01:31:44.112Z,103788.11
2019-02-22T01:32:48.520Z,103785.45
2019-02-22T01:33:54.228Z,103791.70
2019-02-22T01:34:57.221Z,103797.00
2019-02-22T01:36:01.321Z,103792.63
2019-02-22T01:37:05.632Z,103801.52
2019-02-22T01:38:09.869Z,103794.48
2019-02-22T01:39:14.270Z,103801.58
2019-02-22T01:40:18.646Z,103798.12
2019-02-22T01:41:22.973Z,103796.83
2019-02-22T01:42:27.321Z,103803.47
2019-02-22T01:43:33.392Z,103804.39
2019-02-22T01:44:35.906Z,103801.80
2019-02-22T01:45:40.198Z,103800.94
2019-02-22T01:46:44.449Z,103801.01
2019-02-22T01:47:48.802Z,103802.80
2019-02-22T01:48:53.171Z,103814.74
2019-02-22T01:49:57.513Z,103811.69
2019-02-22T01:51:01.835Z,103813.55
2019-02-22T01:52:06.366Z,103807.80
2019-02-22T01:53:10.634Z,103813.58
2019-02-22T01:54:14.923Z,103816.69
2019-02-22T01:55:19.179Z,103817.22
2019-02-22T01:56:23.475Z,103822.13
2019-02-22T01:57:27.727Z,103819.08
2019-02-22T01:58:32.102Z,103821.73
2019-02-22T01:59:36.474Z,103817.34
2019-02-22T02:00:40.709Z,103821.36
2019-02-22T02:01:45.029Z,103825.80
2019-02-22T02:02:49.290Z,103824.08
2019-02-22T02:03:53.627Z,103825.47
2019-02-22T02:04:57.894Z,103833.48
2019-02-22T02:06:02.207Z,103830.83
2019-02-22T02:07:06.561Z,103832.69
2019-02-22T02:08:10.861Z,103833.61
2019-02-22T02:09:15.257Z,103837.16
2019-02-22T02:10:19.616Z,103840.27
2019-02-22T02:11:23.777Z,103844.72
2019-02-22T02:12:28.075Z,103843.80
2019-02-22T02:13:32.419Z,103841.60
2019-02-22T02:14:36.629Z,103842.53
2019-02-22T02:15:40.953Z,103848.23
2019-02-22T02:16:45.334Z,103843.39
2019-02-22T02:17:49.535Z,103846.97
2019-02-22T02:18:53.861Z,103843.86
2019-02-22T02:19:58.274Z,103848.77
2019-02-22T02:21:02.598Z,103849.75
2019-02-22T02:22:06.805Z,103844.44
2019-02-22T02:23:11.163Z,103850.67
2019-02-22T02:24:15.504Z,103852.00
2019-02-22T02:25:19.955Z,103848.52
2019-02-22T02:26:24.197Z,103858.26
2019-02-22T02:27:28.530Z,103854.41
2019-02-22T02:28:32.718Z,103858.45
2019-02-22T02:29:37.148Z,103851.47
2019-02-22T02:30:41.454Z,103856.81
2019-02-22T02:31:45.741Z,103860.78
2019-02-22T02:32:49.964Z,103863.56
2019-02-22T02:33:54.332Z,103859.98
2019-02-22T02:34:58.681Z,103862.69
2019-02-22T02:36:02.941Z,103863.22
2019-02-22T02:37:07.199Z,103861.03
2019-02-22T02:38:11.508Z,103865.93
2019-02-22T02:39:15.797Z,103863.77
2019-02-22T02:40:20.013Z,103870.80
2019-02-22T02:41:24.176Z,103872.64
2019-02-22T02:42:28.529Z,103871.38
2019-02-22T02:43:32.762Z,103876.22
2019-02-22T02:44:37.061Z,103878.08
2019-02-22T02:45:41.417Z,103873.69
2019-02-22T02:46:45.728Z,103885.16
2019-02-22T02:47:49.967Z,103887.87
2019-02-22T02:48:54.267Z,103889.23
2019-02-22T02:49:58.596Z,103884.39
2019-02-22T02:51:02.875Z,103884.39
2019-02-22T02:52:07.372Z,103886.63
2019-02-22T02:53:11.639Z,103886.75
2019-02-22T02:54:16.003Z,103887.61
2019-02-22T02:55:28.188Z,103890.79
2019-02-22T02:56:32.522Z,103886.84
2019-02-22T02:57:36.996Z,103893.92
2019-02-22T02:58:41.374Z,103895.31
2019-02-22T02:59:45.763Z,103896.69
2019-02-22T03:00:50.085Z,103897.22
2019-02-22T03:01:54.455Z,103906.55
2019-02-22T03:02:58.826Z,103903.50
2019-02-22T03:04:03.107Z,103903.52
2019-02-22T03:05:07.413Z,103908.05
2019-02-22T03:06:26.581Z,103911.16
2019-02-22T03:07:48.949Z,103915.66
2019-02-22T03:08:53.313Z,103919.69
2019-02-22T03:10:03.985Z,103915.73
2019-02-22T03:11:19.755Z,103927.26
2019-02-22T03:12:12.678Z,103923.28
2019-02-22T03:13:17.007Z,103925.07
2019-02-22T03:14:21.313Z,103927.26
2019-02-22T03:15:25.621Z,103932.16
2019-02-22T03:16:29.813Z,103934.80
2019-02-22T03:17:34.090Z,103934.41
2019-02-22T03:18:38.443Z,103945.41
2019-02-22T03:19:42.743Z,103948.92
2019-02-22T03:20:47.030Z,103942.30
2019-02-22T03:21:51.346Z,103946.33
2019-02-22T03:22:55.685Z,103943.68
2019-02-22T03:24:00.115Z,103944.60
2019-02-22T03:25:04.578Z,103945.52
2019-02-22T03:26:08.877Z,103948.17
2019-02-22T03:27:13.220Z,103942.95
2019-02-22T03:28:17.632Z,103940.73
2019-02-22T03:29:21.844Z,103949.58
2019-02-22T03:30:26.139Z,103946.06
2019-02-22T03:31:30.445Z,103950.09
2019-02-22T03:32:34.714Z,103949.23
2019-02-22T03:33:39.071Z,103951.93
2019-02-22T03:34:43.345Z,103953.31
2019-02-22T03:35:47.660Z,103955.09
2019-02-22T03:36:51.873Z,103951.17
2019-02-22T03:37:56.092Z,103952.93
2019-02-22T03:39:00.284Z,103954.77
2019-02-22T03:40:04.574Z,103949.88
2019-02-22T03:41:08.787Z,103960.07
2019-02-22T03:42:13.099Z,103959.66
2019-02-22T03:43:17.320Z,103963.69
2019-02-22T03:44:21.626Z,103962.83
2019-02-22T03:45:25.745Z,103957.53
2019-02-22T03:46:30.033Z,103965.94
2019-02-22T03:47:35.392Z,103959.83
2019-02-22T03:48:38.638Z,103965.99
2019-02-22T03:49:42.895Z,103962.94
2019-02-22T03:50:47.141Z,103968.23
2019-02-22T03:51:51.375Z,103969.13
2019-02-22T03:53:02.665Z,103964.74
2019-02-22T03:54:07.155Z,103968.72
2019-02-22T03:55:11.424Z,103973.61
2019-02-22T03:56:15.704Z,103974.47
2019-02-22T03:57:19.952Z,103975.34
2019-02-22T03:58:24.306Z,103970.95
2019-02-22T03:59:28.591Z,103976.26
2019-02-22T04:00:32.916Z,103973.61
2019-02-22T04:01:37.235Z,103976.26
2019-02-22T04:02:41.594Z,103981.09
2019-02-22T04:03:45.822Z,103981.15
2019-02-22T04:04:50.126Z,103983.86
2019-02-22T04:05:54.449Z,103989.16
2019-02-22T04:06:58.651Z,104001.12
2019-02-22T04:08:02.970Z,104001.12
2019-02-22T04:09:11.370Z,103994.98
2019-02-22T04:10:15.679Z,103996.77
2019-02-22T04:11:20.009Z,104000.33
2019-02-22T04:12:24.379Z,104003.91
2019-02-22T04:13:28.683Z,104009.20
2019-02-22T04:14:32.879Z,104007.93
2019-02-22T04:15:37.211Z,104009.71
2019-02-22T04:16:41.498Z,104015.01
2019-02-22T04:17:45.811Z,104014.14
2019-02-22T04:18:50.225Z,104014.20
2019-02-22T04:19:54.434Z,104018.19
2019-02-22T04:20:58.799Z,104026.59
2019-02-22T04:22:03.218Z,104026.19
2019-02-22T04:23:07.552Z,104028.48
2019-02-22T04:24:11.774Z,104028.07
2019-02-22T04:25:15.910Z,104024.09
2019-02-22T04:26:20.284Z,104031.64
2019-02-22T04:27:24.610Z,104034.28
2019-02-22T04:28:28.896Z,104030.78
2019-02-22T04:29:33.241Z,104027.73
2019-02-22T04:30:38.096Z,104030.84
2019-02-22T04:31:41.819Z,104035.27
2019-02-22T04:32:46.170Z,104032.22
2019-02-22T04:33:50.548Z,104035.38
2019-02-22T04:34:54.742Z,104032.77
2019-02-22T04:35:59.057Z,104039.39
2019-02-22T04:37:03.274Z,104037.68
2019-02-22T04:38:07.694Z,104040.31
2019-02-22T04:39:12.082Z,104044.76
2019-02-22T04:40:16.481Z,104042.16
2019-02-22T04:41:20.801Z,104049.59
2019-02-22T04:42:25.060Z,104047.45
2019-02-22T04:43:29.474Z,104051.42
2019-02-22T04:44:33.828Z,104053.67
2019-02-22T04:45:38.134Z,104051.53
2019-02-22T04:46:42.459Z,104056.36
2019-02-22T04:47:46.658Z,104059.02
2019-02-22T04:48:51.007Z,104057.28
2019-02-22T04:49:55.280Z,104060.39
2019-02-22T04:50:59.614Z,104058.66
2019-02-22T04:52:03.893Z,104062.19
2019-02-22T04:53:08.112Z,104055.16
2019-02-22T04:54:12.365Z,104069.27
2019-02-22T04:55:16.613Z,104064.06
2019-02-22T04:56:20.928Z,104065.80
2019-02-22T04:57:25.035Z,104069.36
2019-02-22T04:58:29.431Z,104067.17
2019-02-22T04:59:33.799Z,104069.41
2019-02-22T05:00:38.141Z,104071.19
2019-02-22T05:01:42.466Z,104079.18
2019-02-22T05:02:46.757Z,104077.41
2019-02-22T05:03:51.086Z,104083.63
2019-02-22T05:04:55.314Z,104079.20
2019-02-22T05:05:59.701Z,104090.23
2019-02-22T05:07:03.880Z,104092.02
2019-02-22T05:08:08.234Z,104086.68
2019-02-22T05:09:12.515Z,104087.59
2019-02-22T05:10:16.927Z,104087.59
2019-02-22T05:11:21.122Z,104087.14
2019-02-22T05:12:25.543Z,104082.71
2019-02-22T05:13:29.763Z,104083.16
2019-02-22T05:14:34.083Z,104080.52
2019-02-22T05:15:38.229Z,104075.68
2019-02-22T05:16:42.551Z,104079.64
2019-02-22T05:17:46.891Z,104080.98
2019-02-22T05:18:51.186Z,104082.71
2019-02-22T05:19:55.491Z,104087.13
2019-02-22T05:20:59.855Z,104091.97
2019-02-22T05:22:04.188Z,104093.80
2019-02-22T05:23:08.546Z,104095.99
2019-02-22T05:24:12.721Z,104103.94
2019-02-22T05:25:17.043Z,104102.66
2019-02-22T05:26:21.265Z,104102.61
2019-02-22T05:27:25.570Z,104105.30
2019-02-22T05:28:29.864Z,104106.63
2019-02-22T05:29:34.148Z,104113.70
2019-02-22T05:30:38.376Z,104111.52
2019-02-22T05:31:42.743Z,104120.78
2019-02-22T05:32:46.984Z,104124.34
2019-02-22T05:33:51.287Z,104125.25
2019-02-22T05:34:55.610Z,104130.14
2019-02-22T05:35:59.861Z,104129.23
2019-02-22T05:37:04.263Z,104134.93
2019-02-22T05:38:08.676Z,104129.69
2019-02-22T05:39:19.114Z,104132.33
2019-02-22T05:40:17.345Z,104134.11
2019-02-22T05:41:21.640Z,104146.48
2019-02-22T05:42:28.526Z,104142.93
2019-02-22T05:43:30.177Z,104146.48
2019-02-22T05:44:34.499Z,104146.90
2019-02-22T05:45:38.684Z,104142.93
2019-02-22T05:46:42.970Z,104136.81
2019-02-22T05:47:47.355Z,104138.14
2019-02-22T05:48:51.652Z,104140.38
2019-02-22T05:49:55.922Z,104135.54
2019-02-22T05:51:00.126Z,104136.41
2019-02-22T05:52:04.331Z,104145.67
2019-02-22T05:53:08.762Z,104150.09
2019-02-22T05:54:13.061Z,104150.97
2019-02-22T05:55:17.251Z,104155.39
2019-02-22T05:56:21.566Z,104147.91
2019-02-22T05:57:25.760Z,104154.52
2019-02-22T05:58:30.133Z,104151.87
2019-02-22T05:59:34.495Z,104154.11
2019-02-22T06:00:38.799Z,104149.27
2019-02-22T06:01:43.191Z,104151.05
2019-02-22T06:02:47.629Z,104157.67
2019-02-22T06:03:52.130Z,104157.67
2019-02-22T06:04:56.437Z,104158.99
2019-02-22T06:06:00.777Z,104162.51
2019-02-22T06:07:05.215Z,104168.67
2019-02-22T06:08:09.593Z,104168.26
2019-02-22T06:09:13.927Z,104169.58
2019-02-22T06:10:18.334Z,104177.11
2019-02-22T06:11:22.715Z,104174.47
2019-02-22T06:12:34.513Z,104170.08
2019-02-22T06:13:31.345Z,104173.61
2019-02-22T06:14:35.789Z,104170.96
2019-02-22T06:15:40.134Z,104170.55
2019-02-22T06:16:46.231Z,104168.81
2019-02-22T06:17:50.676Z,104167.50
2019-02-22T06:18:54.918Z,104179.45
2019-02-22T06:19:59.207Z,104179.49
2019-02-22T06:21:03.510Z,104177.72
2019-02-22T06:22:07.118Z,104183.05
2019-02-22T06:23:11.450Z,104181.27
2019-02-22T06:24:15.741Z,104188.76
2019-02-22T06:25:19.953Z,104190.98
2019-02-22T06:26:24.250Z,104186.16
2019-02-22T06:27:28.543Z,104192.78
2019-02-22T06:28:32.871Z,104186.63
2019-02-22T06:29:37.086Z,104184.42
2019-02-22T06:30:41.584Z,104193.69
2019-02-22T06:31:45.835Z,104197.25
2019-02-22T06:32:50.098Z,104199.89
2019-02-22T06:33:54.279Z,104200.80
2019-02-22T06:34:58.611Z,104201.67
2019-02-22T06:36:02.871Z,104211.39
2019-02-22T06:37:07.211Z,104203.04
2019-02-22T06:38:11.543Z,104210.52
2019-02-22T06:39:15.735Z,104214.95
2019-02-22T06:40:20.061Z,104210.52
2019-02-22T06:41:24.168Z,104218.47
2019-02-22T06:42:28.465Z,104215.81
2019-02-22T06:43:32.660Z,104215.86
2019-02-22T06:44:36.848Z,104213.22
2019-02-22T06:45:41.273Z,104212.30
2019-02-22T06:46:45.517Z,104214.03
2019-02-22T06:47:49.875Z,104218.92
2019-02-22T06:48:54.141Z,104220.24
2019-02-22T06:49:58.517Z,104221.56
2019-02-22T06:51:02.829Z,104224.17
2019-02-22T06:52:07.160Z,104224.62
2019-02-22T06:53:11.551Z,104223.80
2019-02-22T06:54:15.845Z,104223.80
2019-02-22T06:55:20.174Z,104227.35
2019-02-22T06:56:24.410Z,104232.19
2019-02-22T06:57:28.958Z,104230.00
2019-02-22T06:58:33.293Z,104237.03
2019-02-22T06:59:37.578Z,104237.44
2019-02-22T07:00:41.915Z,104244.06
2019-02-22T07:01:46.195Z,104238.27
2019-02-22T07:02:50.657Z,104243.10
2019-02-22T07:03:55.110Z,104235.58
2019-02-22T07:04:59.422Z,104234.25
2019-02-22T07:06:05.665Z,104243.05
2019-02-22T07:07:08.088Z,104235.98
2019-02-22T07:08:12.418Z,104241.69
2019-02-22T07:09:16.885Z,104237.67
2019-02-22T07:10:21.247Z,104238.95
2019-02-22T07:11:29.770Z,104237.17
2019-02-22T07:12:38.258Z,104241.10
2019-02-22T07:13:42.612Z,104240.22
2019-02-22T07:14:47.054Z,104245.93
2019-02-22T07:15:51.287Z,104249.45
2019-02-22T07:16:55.560Z,104247.58
2019-02-22T07:17:59.827Z,104247.08
2019-02-22T07:19:04.149Z,104248.81
2019-02-22T07:20:09.990Z,104247.48
2019-02-22T07:21:14.314Z,104250.91
2019-02-22T07:22:18.513Z,104250.00
2019-02-22T07:23:22.879Z,104252.14
2019-02-22T07:24:27.120Z,104255.61
2019-02-22T07:25:31.330Z,104262.19
2019-02-22T07:26:35.558Z,104256.39
2019-02-22T07:27:39.846Z,104258.98
2019-02-22T07:28:44.218Z,104256.28
2019-02-22T07:29:48.463Z,104255.38
2019-02-22T07:30:52.773Z,104265.01
2019-02-22T07:32:05.274Z,104270.72
2019-02-22T07:33:01.405Z,104261.44
2019-02-22T07:34:05.651Z,104265.77
2019-02-22T07:35:10.027Z,104270.12
2019-02-22T07:36:14.324Z,104270.94
2019-02-22T07:37:18.677Z,104275.36
2019-02-22T07:38:22.922Z,104275.27
2019-02-22T07:39:28.241Z,104287.14
2019-02-22T07:40:31.750Z,104278.23
2019-02-22T07:41:36.091Z,104281.33
2019-02-22T07:42:40.405Z,104282.20
2019-02-22T07:43:44.778Z,104285.21
2019-02-22T07:44:49.162Z,104281.23
2019-02-22T07:45:53.487Z,104285.16
2019-02-22T07:46:57.918Z,104285.58
2019-02-22T07:48:02.269Z,104285.53
2019-02-22T07:49:06.735Z,104285.53
2019-02-22T07:50:12.053Z,104277.99
2019-02-22T07:51:16.368Z,104279.32
2019-02-22T07:52:20.698Z,104280.63
2019-02-22T07:53:25.005Z,104276.66
2019-02-22T07:54:29.419Z,104281.45
2019-02-22T07:55:33.872Z,104277.48
2019-02-22T07:56:38.235Z,104282.32
2019-02-22T07:57:42.480Z,104279.63
2019-02-22T07:58:46.826Z,104275.19
2019-02-22T07:59:51.178Z,104281.81
2019-02-22T08:00:55.635Z,104281.36
2019-02-22T08:01:59.985Z,104284.86
2019-02-22T08:03:04.256Z,104280.45
2019-02-22T08:04:08.558Z,104283.08
2019-02-22T08:05:12.873Z,104285.27
2019-02-22T08:06:17.260Z,104287.42
2019-02-22T08:07:21.503Z,104284.27
2019-02-22T08:08:25.917Z,104283.35
2019-02-22T08:09:30.146Z,104285.09
2019-02-22T08:10:34.333Z,104284.63
2019-02-22T08:11:38.699Z,104291.20
2019-02-22T08:12:43.041Z,104288.95
2019-02-22T08:13:47.374Z,104293.80
2019-02-22T08:14:51.607Z,104293.30
2019-02-22T08:15:55.891Z,104295.90
2019-02-22T08:17:00.230Z,104290.58
2019-02-22T08:18:04.586Z,104286.52
2019-02-22T08:19:11.135Z,104294.37
2019-02-22T08:20:13.498Z,104289.92
2019-02-22T08:21:17.938Z,104292.06
2019-02-22T08:22:22.386Z,104289.73
2019-02-22T08:23:26.669Z,104298.50
2019-02-22T08:24:30.977Z,104292.23
2019-02-22T08:25:35.393Z,104298.24
2019-02-22T08:26:39.761Z,104296.41
2019-02-22T08:27:53.028Z,104295.80
2019-02-22T08:28:48.506Z,104297.06
2019-02-22T08:29:52.800Z,104297.37
2019-02-22T08:30:57.054Z,104297.31
2019-02-22T08:32:01.344Z,104304.66
2019-02-22T08:33:05.774Z,104306.33
2019-02-22T08:34:10.057Z,104307.50
2019-02-22T08:35:14.407Z,104309.62
2019-02-22T08:36:18.690Z,104309.06
2019-02-22T08:37:22.961Z,104302.31
2019-02-22T08:38:27.313Z,104304.41
2019-02-22T08:39:31.691Z,104310.06
2019-02-22T08:40:35.901Z,104303.36
2019-02-22T08:41:40.191Z,104305.05
2019-02-22T08:42:44.402Z,104310.30
2019-02-22T08:43:48.758Z,104306.70
2019-02-22T08:44:53.120Z,104307.52
2019-02-22T08:45:57.437Z,104316.76
2019-02-22T08:47:01.858Z,104311.86
2019-02-22T08:48:06.234Z,104318.39
2019-02-22T08:49:10.714Z,104319.23
2019-02-22T08:50:14.963Z,104320.46
2019-02-22T08:51:19.309Z,104319.13
2019-02-22T08:52:23.597Z,104313.72
2019-02-22T08:53:27.879Z,104317.23
2019-02-22T08:54:32.240Z,104319.01
2019-02-22T08:55:36.772Z,104317.16
2019-02-22T08:56:41.001Z,104318.90
2019-02-22T08:57:45.444Z,104317.11
2019-02-22T08:58:49.714Z,104319.25
2019-02-22T08:59:54.172Z,104311.70
2019-02-22T09:00:58.555Z,104314.80
2019-02-22T09:02:02.886Z,104317.85
2019-02-22T09:03:07.421Z,104313.87
2019-02-22T09:04:11.899Z,104321.32
2019-02-22T09:05:16.334Z,104320.80
2019-02-22T09:06:20.742Z,104317.69
2019-02-22T09:07:25.155Z,104316.31
2019-02-22T09:08:29.553Z,104313.20
2019-02-22T09:09:33.867Z,104314.06
2019-02-22T09:10:38.249Z,104313.98
2019-02-22T09:11:42.580Z,104310.41
2019-02-22T09:12:47.124Z,104319.19
2019-02-22T09:13:51.184Z,104318.25
2019-02-22T09:14:55.503Z,104317.34
2019-02-22T09:15:59.815Z,104320.84
2019-02-22T09:17:04.206Z,104316.34
2019-02-22T09:18:08.512Z,104314.91
2019-02-22T09:19:12.843Z,104321.94
2019-02-22T09:20:17.196Z,104316.16
2019-02-22T09:21:21.548Z,104323.61
2019-02-22T09:22:25.851Z,104320.44
2019-02-22T09:23:30.161Z,104315.94
2019-02-22T09:24:34.363Z,104317.65
2019-02-22T09:25:38.733Z,104310.14
2019-02-22T09:26:43.115Z,104306.97
2019-02-22T09:27:47.586Z,104311.24
2019-02-22T09:28:51.921Z,104310.32
2019-02-22T09:29:59.178Z,104307.66
2019-02-22T09:31:00.889Z,104309.52
2019-02-22T09:32:05.251Z,104309.91
2019-02-22T09:33:09.658Z,104312.03
2019-02-22T09:34:13.989Z,104312.78
2019-02-22T09:35:18.416Z,104318.91
2019-02-22T09:36:22.822Z,104310.86
2019-02-22T09:37:27.031Z,104312.07
2019-02-22T09:38:31.304Z,104306.67
2019-02-22T09:39:35.620Z,104314.13
2019-02-22T09:40:39.857Z,104316.67
2019-02-22T09:41:44.387Z,104317.39
2019-02-22T09:42:48.744Z,104319.88
2019-02-22T09:43:55.576Z,104320.14
2019-02-22T09:44:57.388Z,104317.83
2019-02-22T09:46:01.660Z,104321.27
2019-02-22T09:47:06.035Z,104321.03
2019-02-22T09:48:10.403Z,104321.88
2019-02-22T09:49:14.801Z,104324.81
2019-02-22T09:50:19.028Z,104320.83
2019-02-22T09:51:23.359Z,104324.81
2019-02-22T09:52:27.698Z,104334.93
2019-02-22T09:53:31.926Z,104331.72
2019-02-22T09:54:36.515Z,104330.73
2019-02-22T09:55:40.843Z,104334.66
2019-02-22T09:56:45.219Z,104335.53
2019-02-22T09:57:49.635Z,104336.05
2019-02-22T09:58:53.981Z,104340.77
2019-02-22T09:59:58.150Z,104337.98
2019-02-22T10:01:02.625Z,104341.52
2019-02-22T10:02:06.921Z,104340.95
2019-02-22T10:03:11.575Z,104342.97
2019-02-22T10:04:15.936Z,104335.39
2019-02-22T10:05:20.285Z,104337.50
2019-02-22T10:06:24.653Z,104339.58
2019-02-22T10:07:28.860Z,104338.56
2019-02-22T10:08:33.335Z,104334.04
2019-02-22T10:09:37.646Z,104334.72
2019-02-22T10:10:41.969Z,104343.95
2019-02-22T10:11:46.307Z,104346.48
2019-02-22T10:12:50.694Z,104341.56
2019-02-22T10:14:06.061Z,104340.88
2019-02-22T10:14:59.743Z,104341.13
2019-02-22T10:16:04.127Z,104340.93
2019-02-22T10:17:08.380Z,104337.34
2019-02-22T10:18:12.797Z,104343.03
2019-02-22T10:19:17.227Z,104342.91
2019-02-22T10:20:21.601Z,104348.23
2019-02-22T10:21:25.988Z,104344.11
2019-02-22T10:22:30.389Z,104344.02
2019-02-22T10:23:34.648Z,104348.01
2019-02-22T10:24:39.120Z,104346.55
2019-02-22T10:25:43.441Z,104343.79
2019-02-22T10:26:48.049Z,104343.66
2019-02-22T10:27:52.146Z,104338.61
2019-02-22T10:28:56.465Z,104339.84
2019-02-22T10:30:00.844Z,104332.25
2019-02-22T10:31:04.931Z,104333.91
2019-02-22T10:32:09.178Z,104332.88
2019-02-22T10:33:13.592Z,104333.75
2019-02-22T10:34:17.998Z,104330.09
2019-02-22T10:35:22.370Z,104330.19
2019-02-22T10:36:26.719Z,104330.52
2019-02-22T10:37:31.042Z,104327.39
2019-02-22T10:38:36.090Z,104324.16
2019-02-22T10:39:39.676Z,104324.48
2019-02-22T10:40:43.989Z,104330.91
2019-02-22T10:41:48.364Z,104330.30
2019-02-22T10:42:52.552Z,104328.87
2019-02-22T10:43:56.866Z,104336.66
2019-02-22T10:45:01.153Z,104330.36
2019-02-22T10:46:05.568Z,104325.15
2019-02-22T10:47:09.901Z,104329.77
2019-02-22T10:48:14.205Z,104326.92
2019-02-22T10:49:18.595Z,104327.97
2019-02-22T10:50:22.933Z,104325.85
2019-02-22T10:51:27.322Z,104332.73
2019-02-22T10:52:31.576Z,104330.61
2019-02-22T10:53:35.960Z,104323.41
2019-02-22T10:54:40.366Z,104329.02
2019-02-22T10:55:44.565Z,104320.87
2019-02-22T10:56:48.942Z,104325.09
2019-02-22T10:57:53.300Z,104317.73
2019-02-22T10:58:57.597Z,104324.53
2019-02-22T11:00:01.821Z,104321.92
2019-02-22T11:01:06.210Z,104319.53
2019-02-22T11:02:10.371Z,104316.32
2019-02-22T11:03:14.717Z,104316.98
2019-02-22T11:04:19.034Z,104318.84
2019-02-22T11:05:23.327Z,104326.16
2019-02-22T11:06:27.653Z,104323.61
2019-02-22T11:07:31.920Z,104321.14
2019-02-22T11:08:36.251Z,104325.46
2019-02-22T11:09:40.671Z,104323.92
2019-02-22T11:10:45.100Z,104318.27
2019-02-22T11:11:49.408Z,104318.31
2019-02-22T11:12:53.663Z,104315.44
2019-02-22T11:13:58.017Z,104312.41
2019-02-22T11:15:02.256Z,104314.37
2019-02-22T11:16:06.612Z,104314.16
2019-02-22T11:17:10.961Z,104322.84
2019-02-22T11:18:15.297Z,104316.23
2019-02-22T11:19:19.653Z,104316.25
2019-02-22T11:20:23.882Z,104308.96
2019-02-22T11:21:28.270Z,104309.92
2019-02-22T11:22:32.614Z,104312.69
2019-02-22T11:23:37.022Z,104315.75
2019-02-22T11:24:41.328Z,104324.40
2019-02-22T11:25:45.706Z,104321.73
2019-02-22T11:26:50.030Z,104320.17
2019-02-22T11:27:54.405Z,104316.56
2019-02-22T11:28:58.749Z,104319.54
2019-02-22T11:30:03.154Z,104313.49
2019-02-22T11:31:07.450Z,104320.10
2019-02-22T11:32:11.984Z,104315.22
2019-02-22T11:33:16.301Z,104319.88
2019-02-22T11:34:20.734Z,104315.61
2019-02-22T11:35:25.102Z,104320.41
2019-02-22T11:36:29.312Z,104318.54
2019-02-22T11:37:33.612Z,104321.61
2019-02-22T11:38:37.922Z,104321.36
2019-02-22T11:39:42.302Z,104319.15
2019-02-22T11:40:46.645Z,104317.67
2019-02-22T11:41:50.861Z,104328.20
2019-02-22T11:42:55.283Z,104329.84
2019-02-22T11:43:59.567Z,104325.42
2019-02-22T11:45:03.890Z,104314.87
2019-02-22T11:46:08.227Z,104317.23
2019-02-22T11:47:12.677Z,104309.98
2019-02-22T11:48:17.007Z,104313.61
2019-02-22T11:49:21.298Z,104319.56
2019-02-22T11:50:25.733Z,104310.14
2019-02-22T11:51:30.057Z,104307.90
2019-02-22T11:52:34.463Z,104312.81
2019-02-22T11:53:38.855Z,104311.92
2019-02-22T11:54:43.145Z,104311.39
2019-02-22T11:55:47.521Z,104305.58
2019-02-22T11:56:51.721Z,104309.03
2019-02-22T11:57:55.902Z,104307.97
2019-02-22T11:59:00.329Z,104308.42
2019-02-22T12:00:04.992Z,104310.56
2019-02-22T12:01:10.162Z,104308.92
2019-02-22T12:02:14.540Z,104312.70
2019-02-22T12:03:24.504Z,104314.34
2019-02-22T12:04:23.291Z,104306.59
2019-02-22T12:05:27.686Z,104307.07
2019-02-22T12:06:32.093Z,104313.14
2019-02-22T12:07:36.392Z,104300.42
2019-02-22T12:08:40.706Z,104310.06
2019-02-22T12:09:45.026Z,104308.28
2019-02-22T12:10:49.288Z,104312.20
2019-02-22T12:11:53.788Z,104310.55
2019-02-22T12:12:58.032Z,104307.28
2019-02-22T12:14:02.371Z,104305.13
2019-02-22T12:15:06.861Z,104306.70